sensor_id;sensor_type;location;lat;lon;timestamp;pressure;altitude;pressure_sealevel;temperature;humidity
61900;BME280;47853;55.890;37.664;2024-01-11T00:00:13;97433.16;;;-4.23;100.00
61900;BME280;47853;55.890;37.664;2024-01-11T00:02:39;97444.28;;;-4.67;100.00
61900;BME280;47853;55.890;37.664;2024-01-11T00:05:04;97433.84;;;-4.21;100.00
61900;BME280;47853;55.890;37.664;2024-01-11T00:07:30;97415.41;;;-4.39;100.00
61900;BME280;47853;55.890;37.664;2024-01-11T00:09:55;97413.47;;;-4.58;100.00
61900;BME280;47853;55.890;37.664;2024-01-11T00:12:21;97390.38;;;-4.17;100.00
61900;BME280;47853;55.890;37.664;2024-01-11T00:14:46;97416.38;;;-4.08;100.00
61900;BME280;47853;55.890;37.664;2024-01-11T00:17:12;97387.00;;;-3.75;100.00
61900;BME280;47853;55.890;37.664;2024-01-11T00:19:37;97383.41;;;-3.63;100.00
61900;BME280;47853;55.890;37.664;2024-01-11T00:22:03;97366.38;;;-3.77;100.00
61900;BME280;47853;55.890;37.664;2024-01-11T00:24:28;97390.31;;;-4.06;100.00
61900;BME280;47853;55.890;37.664;2024-01-11T00:26:53;97352.13;;;-4.04;100.00
61900;BME280;47853;55.890;37.664;2024-01-11T00:29:19;97364.66;;;-3.88;100.00
61900;BME280;47853;55.890;37.664;2024-01-11T00:31:44;97333.84;;;-3.81;100.00
61900;BME280;47853;55.890;37.664;2024-01-11T00:34:10;97330.13;;;-4.10;100.00
61900;BME280;47853;55.890;37.664;2024-01-11T00:36:35;97320.34;;;-3.13;100.00
61900;BME280;47853;55.890;37.664;2024-01-11T00:39:01;97307.25;;;-3.52;100.00
61900;BME280;47853;55.890;37.664;2024-01-11T00:41:26;97311.78;;;-3.97;100.00
61900;BME280;47853;55.890;37.664;2024-01-11T00:43:51;97303.78;;;-3.31;100.00
61900;BME280;47853;55.890;37.664;2024-01-11T00:46:17;97289.78;;;-3.50;100.00
61900;BME280;47853;55.890;37.664;2024-01-11T00:48:42;97290.03;;;-4.05;100.00
61900;BME280;47853;55.890;37.664;2024-01-11T00:51:08;97278.78;;;-4.16;100.00
61900;BME280;47853;55.890;37.664;2024-01-11T00:53:33;97276.13;;;-4.04;100.00
61900;BME280;47853;55.890;37.664;2024-01-11T00:56:00;97256.97;;;-3.82;100.00
61900;BME280;47853;55.890;37.664;2024-01-11T00:58:25;97251.22;;;-4.17;100.00
61900;BME280;47853;55.890;37.664;2024-01-11T01:00:52;97232.28;;;-3.45;100.00
61900;BME280;47853;55.890;37.664;2024-01-11T01:03:19;97250.28;;;-3.85;100.00
61900;BME280;47853;55.890;37.664;2024-01-11T01:05:45;97240.50;;;-4.02;100.00
61900;BME280;47853;55.890;37.664;2024-01-11T01:08:10;97230.13;;;-4.02;100.00
61900;BME280;47853;55.890;37.664;2024-01-11T01:10:36;97213.69;;;-3.51;100.00
61900;BME280;47853;55.890;37.664;2024-01-11T01:13:01;97207.22;;;-2.96;100.00
61900;BME280;47853;55.890;37.664;2024-01-11T01:15:27;97204.25;;;-3.52;100.00
61900;BME280;47853;55.890;37.664;2024-01-11T01:17:52;97192.41;;;-3.35;100.00
61900;BME280;47853;55.890;37.664;2024-01-11T01:20:17;97205.22;;;-3.84;100.00
61900;BME280;47853;55.890;37.664;2024-01-11T01:22:43;97194.16;;;-3.35;100.00
61900;BME280;47853;55.890;37.664;2024-01-11T01:25:08;97164.41;;;-3.31;100.00
61900;BME280;47853;55.890;37.664;2024-01-11T01:27:34;97160.81;;;-3.50;100.00
61900;BME280;47853;55.890;37.664;2024-01-11T01:29:59;97155.13;;;-3.14;100.00
61900;BME280;47853;55.890;37.664;2024-01-11T01:32:25;97159.38;;;-3.03;100.00
61900;BME280;47853;55.890;37.664;2024-01-11T01:34:50;97148.31;;;-3.25;100.00
61900;BME280;47853;55.890;37.664;2024-01-11T01:37:16;97137.78;;;-3.03;100.00
61900;BME280;47853;55.890;37.664;2024-01-11T01:39:41;97133.78;;;-2.68;100.00
61900;BME280;47853;55.890;37.664;2024-01-11T01:42:06;97132.44;;;-3.02;100.00
61900;BME280;47853;55.890;37.664;2024-01-11T01:44:33;97130.72;;;-2.44;100.00
61900;BME280;47853;55.890;37.664;2024-01-11T01:46:58;97114.59;;;-2.10;100.00
61900;BME280;47853;55.890;37.664;2024-01-11T01:49:24;97112.19;;;-2.21;100.00
61900;BME280;47853;55.890;37.664;2024-01-11T01:51:51;97106.59;;;-2.94;100.00
61900;BME280;47853;55.890;37.664;2024-01-11T01:54:18;97092.75;;;-2.65;100.00
61900;BME280;47853;55.890;37.664;2024-01-11T01:56:45;97086.47;;;-0.96;100.00
61900;BME280;47853;55.890;37.664;2024-01-11T01:59:11;97083.50;;;-1.55;100.00
61900;BME280;47853;55.890;37.664;2024-01-11T02:01:38;97078.22;;;-1.64;100.00
61900;BME280;47853;55.890;37.664;2024-01-11T02:04:04;97062.59;;;-1.64;100.00
61900;BME280;47853;55.890;37.664;2024-01-11T02:06:32;97063.75;;;-1.94;100.00
61900;BME280;47853;55.890;37.664;2024-01-11T02:09:00;97057.66;;;-1.12;100.00
61900;BME280;47853;55.890;37.664;2024-01-11T02:11:26;97048.31;;;-1.41;100.00
61900;BME280;47853;55.890;37.664;2024-01-11T02:13:53;97039.63;;;-0.88;100.00
61900;BME280;47853;55.890;37.664;2024-01-11T02:16:18;97019.38;;;-1.38;100.00
61900;BME280;47853;55.890;37.664;2024-01-11T02:18:44;97027.69;;;-1.89;100.00
61900;BME280;47853;55.890;37.664;2024-01-11T02:21:11;97007.22;;;-0.85;100.00
61900;BME280;47853;55.890;37.664;2024-01-11T02:23:44;97008.13;;;-1.21;100.00
61900;BME280;47853;55.890;37.664;2024-01-11T02:26:16;97000.56;;;-0.79;100.00
61900;BME280;47853;55.890;37.664;2024-01-11T02:28:45;96986.44;;;-1.48;100.00
61900;BME280;47853;55.890;37.664;2024-01-11T02:31:12;96981.13;;;-1.38;100.00
61900;BME280;47853;55.890;37.664;2024-01-11T02:33:39;96975.69;;;-0.31;100.00
61900;BME280;47853;55.890;37.664;2024-01-11T02:36:05;96942.50;;;-1.24;100.00
61900;BME280;47853;55.890;37.664;2024-01-11T02:38:33;96960.59;;;-0.62;100.00
61900;BME280;47853;55.890;37.664;2024-01-11T02:40:59;96951.41;;;-0.39;100.00
61900;BME280;47853;55.890;37.664;2024-01-11T02:43:25;96954.00;;;-0.39;100.00
61900;BME280;47853;55.890;37.664;2024-01-11T02:45:54;96945.38;;;-0.75;100.00
61900;BME280;47853;55.890;37.664;2024-01-11T02:48:19;96933.97;;;-0.74;100.00
61900;BME280;47853;55.890;37.664;2024-01-11T02:50:45;96937.84;;;-0.43;100.00
61900;BME280;47853;55.890;37.664;2024-01-11T02:53:10;96925.72;;;-0.61;100.00
61900;BME280;47853;55.890;37.664;2024-01-11T02:55:36;96917.97;;;-0.36;100.00
61900;BME280;47853;55.890;37.664;2024-01-11T02:58:01;96908.69;;;-0.38;100.00
61900;BME280;47853;55.890;37.664;2024-01-11T03:00:27;96912.16;;;-0.13;100.00
61900;BME280;47853;55.890;37.664;2024-01-11T03:02:52;96911.97;;;-0.71;100.00
61900;BME280;47853;55.890;37.664;2024-01-11T03:05:17;96907.47;;;-0.61;100.00
61900;BME280;47853;55.890;37.664;2024-01-11T03:07:43;96898.16;;;0.13;100.00
61900;BME280;47853;55.890;37.664;2024-01-11T03:10:08;96900.56;;;-0.10;100.00
61900;BME280;47853;55.890;37.664;2024-01-11T03:12:35;96886.72;;;-0.03;100.00
61900;BME280;47853;55.890;37.664;2024-01-11T03:15:00;96895.38;;;0.23;100.00
61900;BME280;47853;55.890;37.664;2024-01-11T03:17:26;96869.25;;;0.39;100.00
61900;BME280;47853;55.890;37.664;2024-01-11T03:19:51;96880.53;;;0.15;100.00
61900;BME280;47853;55.890;37.664;2024-01-11T03:22:16;96854.75;;;0.12;100.00
61900;BME280;47853;55.890;37.664;2024-01-11T03:24:42;96875.66;;;0.28;100.00
61900;BME280;47853;55.890;37.664;2024-01-11T03:27:07;96863.50;;;0.77;100.00
61900;BME280;47853;55.890;37.664;2024-01-11T03:29:33;96858.84;;;0.96;100.00
61900;BME280;47853;55.890;37.664;2024-01-11T03:31:58;96846.38;;;0.66;100.00
61900;BME280;47853;55.890;37.664;2024-01-11T03:34:24;96845.25;;;1.40;100.00
61900;BME280;47853;55.890;37.664;2024-01-11T03:36:49;96832.34;;;1.70;100.00
61900;BME280;47853;55.890;37.664;2024-01-11T03:39:14;96843.28;;;1.42;100.00
61900;BME280;47853;55.890;37.664;2024-01-11T03:41:44;96837.72;;;0.74;100.00
61900;BME280;47853;55.890;37.664;2024-01-11T03:44:09;96832.63;;;1.76;100.00
61900;BME280;47853;55.890;37.664;2024-01-11T03:46:35;96829.59;;;1.64;100.00
61900;BME280;47853;55.890;37.664;2024-01-11T03:49:00;96820.66;;;2.05;100.00
61900;BME280;47853;55.890;37.664;2024-01-11T03:51:25;96820.97;;;2.40;100.00
61900;BME280;47853;55.890;37.664;2024-01-11T03:53:51;96812.13;;;2.71;100.00
61900;BME280;47853;55.890;37.664;2024-01-11T03:56:16;96819.91;;;3.46;100.00
61900;BME280;47853;55.890;37.664;2024-01-11T03:58:42;96800.28;;;2.60;100.00
61900;BME280;47853;55.890;37.664;2024-01-11T04:01:07;96803.56;;;2.77;100.00
61900;BME280;47853;55.890;37.664;2024-01-11T04:03:33;96812.41;;;3.06;100.00
61900;BME280;47853;55.890;37.664;2024-01-11T04:05:58;96801.78;;;3.29;100.00
61900;BME280;47853;55.890;37.664;2024-01-11T04:08:23;96800.66;;;2.72;100.00
61900;BME280;47853;55.890;37.664;2024-01-11T04:10:49;96801.50;;;2.87;100.00
61900;BME280;47853;55.890;37.664;2024-01-11T04:13:14;96800.72;;;2.34;100.00
61900;BME280;47853;55.890;37.664;2024-01-11T04:15:40;96793.75;;;3.16;100.00
61900;BME280;47853;55.890;37.664;2024-01-11T04:18:05;96787.91;;;2.69;100.00
61900;BME280;47853;55.890;37.664;2024-01-11T04:20:31;96784.81;;;2.95;100.00
61900;BME280;47853;55.890;37.664;2024-01-11T04:22:56;96784.63;;;3.12;100.00
61900;BME280;47853;55.890;37.664;2024-01-11T04:25:21;96784.78;;;2.73;100.00
61900;BME280;47853;55.890;37.664;2024-01-11T04:27:47;96768.63;;;3.65;100.00
61900;BME280;47853;55.890;37.664;2024-01-11T04:30:12;96769.84;;;2.74;100.00
61900;BME280;47853;55.890;37.664;2024-01-11T04:32:38;96761.47;;;3.15;100.00
61900;BME280;47853;55.890;37.664;2024-01-11T04:35:03;96782.31;;;2.87;100.00
61900;BME280;47853;55.890;37.664;2024-01-11T04:37:29;96769.13;;;2.35;100.00
61900;BME280;47853;55.890;37.664;2024-01-11T04:39:55;96762.72;;;3.19;100.00
61900;BME280;47853;55.890;37.664;2024-01-11T04:42:20;96764.47;;;3.12;100.00
61900;BME280;47853;55.890;37.664;2024-01-11T04:44:45;96762.97;;;2.58;100.00
61900;BME280;47853;55.890;37.664;2024-01-11T04:47:11;96750.06;;;2.71;100.00
61900;BME280;47853;55.890;37.664;2024-01-11T04:49:36;96746.19;;;3.19;100.00
61900;BME280;47853;55.890;37.664;2024-01-11T04:52:02;96756.56;;;2.30;100.00
61900;BME280;47853;55.890;37.664;2024-01-11T04:54:27;96745.00;;;3.43;100.00
61900;BME280;47853;55.890;37.664;2024-01-11T04:56:52;96742.06;;;2.95;100.00
61900;BME280;47853;55.890;37.664;2024-01-11T04:59:18;96736.09;;;3.01;100.00
61900;BME280;47853;55.890;37.664;2024-01-11T05:01:45;96738.38;;;3.26;100.00
61900;BME280;47853;55.890;37.664;2024-01-11T05:04:11;96743.19;;;2.70;100.00
61900;BME280;47853;55.890;37.664;2024-01-11T05:06:36;96727.22;;;3.02;100.00
61900;BME280;47853;55.890;37.664;2024-01-11T05:09:02;96725.06;;;3.99;100.00
61900;BME280;47853;55.890;37.664;2024-01-11T05:11:27;96718.06;;;3.34;100.00
61900;BME280;47853;55.890;37.664;2024-01-11T05:13:53;96717.66;;;2.94;100.00
61900;BME280;47853;55.890;37.664;2024-01-11T05:16:19;96708.63;;;3.18;100.00
61900;BME280;47853;55.890;37.664;2024-01-11T05:18:45;96696.03;;;3.29;100.00
61900;BME280;47853;55.890;37.664;2024-01-11T05:21:11;96715.00;;;3.31;100.00
61900;BME280;47853;55.890;37.664;2024-01-11T05:23:36;96692.88;;;3.62;100.00
61900;BME280;47853;55.890;37.664;2024-01-11T05:26:02;96721.56;;;2.83;100.00
61900;BME280;47853;55.890;37.664;2024-01-11T05:28:27;96700.41;;;2.33;100.00
61900;BME280;47853;55.890;37.664;2024-01-11T05:30:52;96714.25;;;4.09;100.00
61900;BME280;47853;55.890;37.664;2024-01-11T05:33:18;96698.03;;;3.05;100.00
61900;BME280;47853;55.890;37.664;2024-01-11T05:35:43;96701.13;;;4.16;100.00
61900;BME280;47853;55.890;37.664;2024-01-11T05:38:09;96702.56;;;4.18;100.00
61900;BME280;47853;55.890;37.664;2024-01-11T05:40:34;96670.66;;;3.58;100.00
61900;BME280;47853;55.890;37.664;2024-01-11T05:42:59;96698.16;;;4.26;100.00
61900;BME280;47853;55.890;37.664;2024-01-11T05:45:25;96697.16;;;4.20;100.00
61900;BME280;47853;55.890;37.664;2024-01-11T05:47:50;96674.47;;;3.55;100.00
61900;BME280;47853;55.890;37.664;2024-01-11T05:50:16;96693.97;;;4.31;100.00
61900;BME280;47853;55.890;37.664;2024-01-11T05:52:41;96680.06;;;3.74;100.00
61900;BME280;47853;55.890;37.664;2024-01-11T05:55:07;96680.47;;;4.41;100.00
61900;BME280;47853;55.890;37.664;2024-01-11T05:57:32;96662.41;;;4.25;100.00
61900;BME280;47853;55.890;37.664;2024-01-11T05:59:58;96668.31;;;3.98;100.00
61900;BME280;47853;55.890;37.664;2024-01-11T06:02:23;96667.16;;;3.79;100.00
61900;BME280;47853;55.890;37.664;2024-01-11T06:04:48;96676.97;;;3.42;100.00
61900;BME280;47853;55.890;37.664;2024-01-11T06:07:14;96673.47;;;3.34;100.00
61900;BME280;47853;55.890;37.664;2024-01-11T06:09:39;96668.09;;;4.28;100.00
61900;BME280;47853;55.890;37.664;2024-01-11T06:12:05;96667.66;;;4.67;100.00
61900;BME280;47853;55.890;37.664;2024-01-11T06:14:30;96657.59;;;4.90;100.00
61900;BME280;47853;55.890;37.664;2024-01-11T06:16:56;96643.84;;;4.88;100.00
61900;BME280;47853;55.890;37.664;2024-01-11T06:19:22;96660.53;;;4.54;100.00
61900;BME280;47853;55.890;37.664;2024-01-11T06:21:48;96637.84;;;4.46;100.00
61900;BME280;47853;55.890;37.664;2024-01-11T06:24:13;96639.41;;;4.33;100.00
61900;BME280;47853;55.890;37.664;2024-01-11T06:26:39;96640.28;;;4.54;100.00
61900;BME280;47853;55.890;37.664;2024-01-11T06:29:04;96655.75;;;4.84;100.00
61900;BME280;47853;55.890;37.664;2024-01-11T06:31:30;96656.66;;;5.18;100.00
61900;BME280;47853;55.890;37.664;2024-01-11T06:33:55;96655.38;;;5.01;100.00
61900;BME280;47853;55.890;37.664;2024-01-11T06:36:21;96657.41;;;4.01;100.00
61900;BME280;47853;55.890;37.664;2024-01-11T06:38:46;96650.38;;;5.19;100.00
61900;BME280;47853;55.890;37.664;2024-01-11T06:41:12;96653.72;;;4.24;100.00
61900;BME280;47853;55.890;37.664;2024-01-11T06:43:37;96636.66;;;4.48;100.00
61900;BME280;47853;55.890;37.664;2024-01-11T06:46:06;96641.28;;;4.46;100.00
61900;BME280;47853;55.890;37.664;2024-01-11T06:48:32;96643.38;;;4.71;100.00
61900;BME280;47853;55.890;37.664;2024-01-11T06:50:58;96635.34;;;3.89;100.00
61900;BME280;47853;55.890;37.664;2024-01-11T06:53:23;96630.22;;;4.71;100.00
61900;BME280;47853;55.890;37.664;2024-01-11T06:55:48;96631.97;;;4.44;100.00
61900;BME280;47853;55.890;37.664;2024-01-11T06:58:16;96638.84;;;5.20;100.00
61900;BME280;47853;55.890;37.664;2024-01-11T07:00:41;96623.66;;;5.36;100.00
61900;BME280;47853;55.890;37.664;2024-01-11T07:03:06;96604.19;;;4.28;100.00
61900;BME280;47853;55.890;37.664;2024-01-11T07:05:32;96620.44;;;3.96;100.00
61900;BME280;47853;55.890;37.664;2024-01-11T07:07:57;96609.06;;;4.93;100.00
61900;BME280;47853;55.890;37.664;2024-01-11T07:10:23;96616.56;;;5.43;100.00
61900;BME280;47853;55.890;37.664;2024-01-11T07:12:48;96605.59;;;4.86;100.00
61900;BME280;47853;55.890;37.664;2024-01-11T07:15:14;96620.84;;;5.58;100.00
61900;BME280;47853;55.890;37.664;2024-01-11T07:17:39;96612.47;;;4.25;100.00
61900;BME280;47853;55.890;37.664;2024-01-11T07:20:05;96606.63;;;4.98;100.00
61900;BME280;47853;55.890;37.664;2024-01-11T07:22:31;96593.81;;;4.61;100.00
61900;BME280;47853;55.890;37.664;2024-01-11T07:24:56;96600.34;;;5.06;100.00
61900;BME280;47853;55.890;37.664;2024-01-11T07:27:21;96598.72;;;5.65;100.00
61900;BME280;47853;55.890;37.664;2024-01-11T07:29:47;96604.38;;;4.88;100.00
61900;BME280;47853;55.890;37.664;2024-01-11T07:32:12;96596.72;;;4.93;100.00
61900;BME280;47853;55.890;37.664;2024-01-11T07:34:38;96587.63;;;5.43;100.00
61900;BME280;47853;55.890;37.664;2024-01-11T07:37:03;96600.25;;;4.52;100.00
61900;BME280;47853;55.890;37.664;2024-01-11T07:39:29;96587.78;;;4.81;100.00
61900;BME280;47853;55.890;37.664;2024-01-11T07:41:54;96580.94;;;5.00;100.00
61900;BME280;47853;55.890;37.664;2024-01-11T07:44:20;96581.38;;;3.86;100.00
61900;BME280;47853;55.890;37.664;2024-01-11T07:46:45;96570.16;;;4.55;100.00
61900;BME280;47853;55.890;37.664;2024-01-11T07:49:10;96578.44;;;4.03;100.00
61900;BME280;47853;55.890;37.664;2024-01-11T07:51:36;96568.25;;;3.80;100.00
61900;BME280;47853;55.890;37.664;2024-01-11T07:54:01;96576.41;;;4.60;100.00
61900;BME280;47853;55.890;37.664;2024-01-11T07:56:27;96548.25;;;3.50;100.00
61900;BME280;47853;55.890;37.664;2024-01-11T07:58:52;96550.97;;;4.68;100.00
61900;BME280;47853;55.890;37.664;2024-01-11T08:01:18;96549.31;;;4.60;100.00
61900;BME280;47853;55.890;37.664;2024-01-11T08:03:43;96559.16;;;3.18;100.00
61900;BME280;47853;55.890;37.664;2024-01-11T08:06:10;96558.19;;;3.90;100.00
61900;BME280;47853;55.890;37.664;2024-01-11T08:08:37;96538.28;;;4.16;100.00
61900;BME280;47853;55.890;37.664;2024-01-11T08:11:02;96547.97;;;4.91;100.00
61900;BME280;47853;55.890;37.664;2024-01-11T08:13:28;96522.69;;;4.90;100.00
61900;BME280;47853;55.890;37.664;2024-01-11T08:15:53;96532.59;;;5.01;100.00
61900;BME280;47853;55.890;37.664;2024-01-11T08:18:19;96536.41;;;4.65;100.00
61900;BME280;47853;55.890;37.664;2024-01-11T08:20:44;96539.25;;;4.01;100.00
61900;BME280;47853;55.890;37.664;2024-01-11T08:23:10;96534.38;;;4.67;100.00
61900;BME280;47853;55.890;37.664;2024-01-11T08:25:35;96525.91;;;3.96;100.00
61900;BME280;47853;55.890;37.664;2024-01-11T08:28:00;96528.69;;;3.88;100.00
61900;BME280;47853;55.890;37.664;2024-01-11T08:30:26;96527.94;;;4.07;100.00
61900;BME280;47853;55.890;37.664;2024-01-11T08:32:51;96536.41;;;3.54;100.00
61900;BME280;47853;55.890;37.664;2024-01-11T08:35:17;96553.41;;;4.07;100.00
61900;BME280;47853;55.890;37.664;2024-01-11T08:37:42;96558.81;;;3.28;100.00
61900;BME280;47853;55.890;37.664;2024-01-11T08:40:08;96585.41;;;2.97;100.00
61900;BME280;47853;55.890;37.664;2024-01-11T08:42:33;96608.41;;;3.23;100.00
61900;BME280;47853;55.890;37.664;2024-01-11T08:44:59;96610.59;;;3.48;100.00
61900;BME280;47853;55.890;37.664;2024-01-11T08:47:24;96604.09;;;2.50;100.00
61900;BME280;47853;55.890;37.664;2024-01-11T08:49:50;96615.97;;;2.16;100.00
61900;BME280;47853;55.890;37.664;2024-01-11T08:52:15;96620.38;;;2.15;100.00
61900;BME280;47853;55.890;37.664;2024-01-11T08:54:41;96618.72;;;2.44;100.00
61900;BME280;47853;55.890;37.664;2024-01-11T08:57:06;96631.16;;;2.94;100.00
61900;BME280;47853;55.890;37.664;2024-01-11T08:59:32;96632.19;;;2.78;100.00
61900;BME280;47853;55.890;37.664;2024-01-11T09:01:57;96630.88;;;2.67;100.00
61900;BME280;47853;55.890;37.664;2024-01-11T09:04:22;96641.63;;;2.94;100.00
61900;BME280;47853;55.890;37.664;2024-01-11T09:06:48;96639.63;;;1.93;100.00
61900;BME280;47853;55.890;37.664;2024-01-11T09:09:13;96638.38;;;1.88;100.00
61900;BME280;47853;55.890;37.664;2024-01-11T09:11:42;96645.03;;;1.91;100.00
61900;BME280;47853;55.890;37.664;2024-01-11T09:14:08;96649.28;;;1.92;100.00
61900;BME280;47853;55.890;37.664;2024-01-11T09:16:33;96659.38;;;1.95;100.00
61900;BME280;47853;55.890;37.664;2024-01-11T09:18:59;96666.13;;;1.59;100.00
61900;BME280;47853;55.890;37.664;2024-01-11T09:21:24;96673.31;;;2.11;100.00
61900;BME280;47853;55.890;37.664;2024-01-11T09:23:50;96685.56;;;2.40;100.00
61900;BME280;47853;55.890;37.664;2024-01-11T09:26:15;96673.44;;;1.26;100.00
61900;BME280;47853;55.890;37.664;2024-01-11T09:28:41;96691.09;;;1.47;100.00
61900;BME280;47853;55.890;37.664;2024-01-11T09:31:06;96685.94;;;2.22;100.00
61900;BME280;47853;55.890;37.664;2024-01-11T09:33:31;96697.72;;;1.58;100.00
61900;BME280;47853;55.890;37.664;2024-01-11T09:35:57;96711.00;;;1.01;100.00
61900;BME280;47853;55.890;37.664;2024-01-11T09:38:22;96715.03;;;1.74;100.00
61900;BME280;47853;55.890;37.664;2024-01-11T09:41:06;96706.09;;;0.75;100.00
61900;BME280;47853;55.890;37.664;2024-01-11T09:43:34;96716.41;;;1.00;100.00
61900;BME280;47853;55.890;37.664;2024-01-11T09:46:03;96700.81;;;0.52;100.00
61900;BME280;47853;55.890;37.664;2024-01-11T09:48:30;96729.50;;;1.47;97.59
61900;BME280;47853;55.890;37.664;2024-01-11T09:50:57;96746.91;;;0.76;94.07
61900;BME280;47853;55.890;37.664;2024-01-11T09:53:24;96721.19;;;0.56;87.79
61900;BME280;47853;55.890;37.664;2024-01-11T09:55:51;96732.59;;;-0.01;82.86
61900;BME280;47853;55.890;37.664;2024-01-11T09:58:17;96725.06;;;0.21;79.39
61900;BME280;47853;55.890;37.664;2024-01-11T10:00:44;96728.66;;;0.20;73.44
61900;BME280;47853;55.890;37.664;2024-01-11T10:03:10;96754.66;;;-0.62;76.23
61900;BME280;47853;55.890;37.664;2024-01-11T10:05:36;96755.59;;;-0.79;75.52
61900;BME280;47853;55.890;37.664;2024-01-11T10:08:01;96773.94;;;-0.97;73.67
61900;BME280;47853;55.890;37.664;2024-01-11T10:10:27;96769.97;;;-0.01;71.70
61900;BME280;47853;55.890;37.664;2024-01-11T10:12:52;96783.84;;;-0.41;70.77
61900;BME280;47853;55.890;37.664;2024-01-11T10:15:18;96774.72;;;-0.37;70.47
61900;BME280;47853;55.890;37.664;2024-01-11T10:17:44;96790.53;;;-0.14;69.49
61900;BME280;47853;55.890;37.664;2024-01-11T10:20:11;96799.94;;;-0.63;72.96
61900;BME280;47853;55.890;37.664;2024-01-11T10:22:36;96820.03;;;-0.38;74.08
61900;BME280;47853;55.890;37.664;2024-01-11T10:25:14;96809.91;;;-0.41;72.40
61900;BME280;47853;55.890;37.664;2024-01-11T10:27:41;96830.81;;;0.00;70.51
61900;BME280;47853;55.890;37.664;2024-01-11T10:30:07;96829.16;;;-0.34;72.36
61900;BME280;47853;55.890;37.664;2024-01-11T10:32:33;96833.88;;;-0.30;73.44
61900;BME280;47853;55.890;37.664;2024-01-11T10:34:58;96842.88;;;0.01;72.35
61900;BME280;47853;55.890;37.664;2024-01-11T10:37:24;96849.22;;;-0.10;73.66
61900;BME280;47853;55.890;37.664;2024-01-11T10:39:51;96859.00;;;0.38;72.30
61900;BME280;47853;55.890;37.664;2024-01-11T10:42:24;96846.09;;;-0.30;79.54
61900;BME280;47853;55.890;37.664;2024-01-11T10:44:54;96857.06;;;-1.21;87.37
61900;BME280;47853;55.890;37.664;2024-01-11T10:47:21;96880.41;;;-1.37;89.78
61900;BME280;47853;55.890;37.664;2024-01-11T10:49:50;96877.16;;;-1.05;87.42
61900;BME280;47853;55.890;37.664;2024-01-11T10:52:23;96905.16;;;-1.59;88.03
61900;BME280;47853;55.890;37.664;2024-01-11T10:54:53;96898.94;;;-1.67;84.64
61900;BME280;47853;55.890;37.664;2024-01-11T10:57:18;96858.97;;;-2.20;86.06
61900;BME280;47853;55.890;37.664;2024-01-11T10:59:45;96892.41;;;-2.43;85.83
61900;BME280;47853;55.890;37.664;2024-01-11T11:02:13;96928.41;;;-2.77;83.92
61900;BME280;47853;55.890;37.664;2024-01-11T11:04:40;96943.28;;;-2.41;84.18
61900;BME280;47853;55.890;37.664;2024-01-11T11:07:07;96926.69;;;-2.58;81.71
61900;BME280;47853;55.890;37.664;2024-01-11T11:09:34;96958.84;;;-2.13;77.62
61900;BME280;47853;55.890;37.664;2024-01-11T11:12:00;96972.00;;;-2.14;74.04
61900;BME280;47853;55.890;37.664;2024-01-11T11:14:28;96961.91;;;-1.63;70.07
61900;BME280;47853;55.890;37.664;2024-01-11T11:16:53;96979.50;;;-2.11;70.77
61900;BME280;47853;55.890;37.664;2024-01-11T11:19:20;96954.47;;;-3.54;72.32
61900;BME280;47853;55.890;37.664;2024-01-11T11:21:47;96974.38;;;-3.35;75.02
61900;BME280;47853;55.890;37.664;2024-01-11T11:24:13;96985.72;;;-3.55;72.59
61900;BME280;47853;55.890;37.664;2024-01-11T11:26:38;96992.97;;;-3.49;72.26
61900;BME280;47853;55.890;37.664;2024-01-11T11:29:04;96996.22;;;-3.37;70.65
61900;BME280;47853;55.890;37.664;2024-01-11T11:31:38;97002.38;;;-3.87;71.75
61900;BME280;47853;55.890;37.664;2024-01-11T11:34:06;96989.56;;;-3.50;69.66
61900;BME280;47853;55.890;37.664;2024-01-11T11:36:33;97009.69;;;-3.04;68.40
61900;BME280;47853;55.890;37.664;2024-01-11T11:38:59;97009.06;;;-3.45;70.80
61900;BME280;47853;55.890;37.664;2024-01-11T11:41:26;97026.44;;;-3.75;72.07
61900;BME280;47853;55.890;37.664;2024-01-11T11:43:52;97025.13;;;-4.01;76.47
61900;BME280;47853;55.890;37.664;2024-01-11T11:46:18;97050.59;;;-3.75;78.10
61900;BME280;47853;55.890;37.664;2024-01-11T11:53:40;97039.13;;;-3.53;72.02
61900;BME280;47853;55.890;37.664;2024-01-11T11:56:07;97054.78;;;-3.94;72.69
61900;BME280;47853;55.890;37.664;2024-01-11T11:58:33;97054.47;;;-4.10;73.14
61900;BME280;47853;55.890;37.664;2024-01-11T12:01:00;97051.47;;;-4.46;70.45
61900;BME280;47853;55.890;37.664;2024-01-11T12:03:35;97069.47;;;-4.76;74.81
61900;BME280;47853;55.890;37.664;2024-01-11T12:06:01;97063.38;;;-4.44;74.87
61900;BME280;47853;55.890;37.664;2024-01-11T12:08:27;97057.41;;;-4.87;77.05
61900;BME280;47853;55.890;37.664;2024-01-11T12:10:52;97075.44;;;-4.85;78.02
61900;BME280;47853;55.890;37.664;2024-01-11T12:13:18;97075.31;;;-4.84;79.70
61900;BME280;47853;55.890;37.664;2024-01-11T12:15:47;97075.88;;;-4.49;79.66
61900;BME280;47853;55.890;37.664;2024-01-11T12:18:12;97094.81;;;-4.58;79.91
61900;BME280;47853;55.890;37.664;2024-01-11T12:20:38;97106.13;;;-3.87;79.89
61900;BME280;47853;55.890;37.664;2024-01-11T12:23:03;97094.38;;;-5.06;81.83
61900;BME280;47853;55.890;37.664;2024-01-11T12:25:29;97121.78;;;-4.82;84.82
61900;BME280;47853;55.890;37.664;2024-01-11T12:27:55;97115.31;;;-5.09;84.50
61900;BME280;47853;55.890;37.664;2024-01-11T12:30:25;97128.28;;;-4.88;83.77
61900;BME280;47853;55.890;37.664;2024-01-11T12:32:51;97133.66;;;-5.33;85.44
61900;BME280;47853;55.890;37.664;2024-01-11T12:35:18;97152.78;;;-4.71;82.63
61900;BME280;47853;55.890;37.664;2024-01-11T12:37:53;97150.53;;;-4.85;77.81
61900;BME280;47853;55.890;37.664;2024-01-11T12:40:19;97145.97;;;-5.26;75.21
61900;BME280;47853;55.890;37.664;2024-01-11T12:42:48;97151.88;;;-5.02;74.40
61900;BME280;47853;55.890;37.664;2024-01-11T12:45:14;97141.63;;;-5.69;71.86